Date,TemperatureHighF,TemperatureAvgF,TemperatureLowF,DewpointHighF,DewpointAvgF,DewpointLowF,HumidityHigh,HumidityAvg,HumidityLow,PressureMaxIn,PressureMinIn,WindSpeedMaxMPH,WindSpeedAvgMPH,GustSpeedMaxMPH,PrecipitationSumIn
2013-1-1,32,27,22,30,21,14,93,78,68,30.08,29.95,6,0,6,0.00
2013-1-2,22,22,22,14,14,14,73,73,73,30.14,30.05,0,0,0,0.00
2013-1-3,30,25,21,22,18,11,77,72,61,30.16,30.05,13,1,13,0.00
2013-1-4,30,28,27,22,19,16,77,70,58,30.15,30.02,17,2,17,0.00
2013-1-5,36,30,27,24,20,16,76,67,62,30.29,30.03,13,1,13,0.00
2013-1-6,37,34,31,32,28,24,87,79,70,30.20,29.90,13,1,13,0.00
2013-1-7,37,32,29,28,26,23,88,78,61,30.40,30.18,12,1,12,0.00
2013-1-8,42,33,26,28,25,21,84,72,50,30.26,30.17,6,0,6,0.03
2013-1-9,47,40,31,36,31,27,86,71,56,30.43,30.08,19,1,19,0.14
2013-1-10,43,34,26,32,26,23,88,73,52,30.55,30.14,10,0,10,0.03
2013-1-11,57,49,42,52,43,26,95,80,51,30.14,29.76,17,1,17,0.53
2013-1-12,61,54,48,55,50,45,94,87,74,29.94,29.77,8,0,8,0.00
2013-1-13,62,50,36,58,47,35,96,90,81,29.98,29.62,14,1,14,0.34
2013-1-14,36,30,27,35,24,19,95,78,70,30.40,29.98,11,1,11,0.00
2013-1-15,31,28,26,23,20,18,76,71,65,30.39,30.08,7,0,7,0.00
2013-1-16,36,32,29,26,23,22,79,69,60,30.09,29.83,13,1,13,0.00
2013-1-17,36,33,25,29,24,14,79,70,59,30.24,29.95,17,1,17,0.00
2013-1-18,35,28,22,21,15,6,76,57,46,30.45,30.03,15,1,15,0.00
2013-1-19,52,44,35,30,25,21,56,47,41,30.03,29.62,24,3,24,0.00
2013-1-20,46,29,21,33,16,9,68,58,48,30.14,29.59,24,2,24,0.00
2013-1-21,24,19,15,14,9,3,80,66,42,30.11,29.92,13,1,13,0.00
2013-1-22,15,15,15,10,10,10,80,80,80,30.19,30.05,0,0,0,0.00
2013-1-23,17,16,15,10,8,4,80,72,58,30.19,29.98,7,0,7,0.00
2013-1-24,16,16,16,5,5,5,63,63,63,30.46,29.98,0,0,0,0.00
2013-1-25,0,0,0,0,0,0,0,0,100,30.42,29.94,0,0,0,0.00
2013-1-26,25,15,0,19,10,0,82,46,69,30.42,29.98,3,0,13,0.00
2013-1-27,33,27,22,25,17,14,83,67,53,30.49,30.19,11,0,11,0.00
2013-1-28,48,41,31,47,39,23,97,92,74,30.19,29.86,13,1,13,0.41
2013-1-29,60,51,39,55,49,38,98,92,78,29.99,29.52,10,1,10,0.15
2013-1-30,62,55,36,56,50,33,95,82,71,29.52,29.08,14,2,14,0.33
2013-1-31,36,26,19,32,17,8,87,69,56,29.84,29.21,20,3,20,0.00
2013-2-1,20,17,16,14,10,6,84,75,61,30.28,29.84,13,1,13,0.00
2013-2-2,25,20,16,20,13,7,86,76,69,30.26,29.93,2,0,2,0.19
2013-2-3,24,19,16,20,14,10,87,78,63,30.00,29.85,10,0,10,0.01
2013-2-4,29,22,17,21,16,9,88,78,67,30.02,29.85,6,0,6,0.04
2013-2-5,31,26,22,23,20,17,89,79,59,29.90,29.82,7,0,7,0.03
2013-2-6,29,24,16,25,16,11,89,71,54,30.31,29.90,10,0,10,0.00
2013-2-7,46,34,18,29,23,14,85,64,46,30.27,29.78,13,1,13,0.04
2013-2-8,42,32,26,36,27,20,92,83,67,30.24,29.66,20,3,20,0.17
2013-2-9,30,25,19,21,19,15,88,78,65,30.41,30.24,13,0,13,0.00
2013-2-10,49,37,21,35,21,17,88,54,32,30.29,29.71,16,2,16,0.03
2013-2-11,51,41,34,43,33,24,88,71,59,29.86,29.59,22,3,22,0.00
2013-2-12,37,32,25,25,23,20,89,71,60,30.04,29.86,12,1,12,0.00
2013-2-13,34,28,23,26,22,19,89,78,63,29.88,29.73,12,0,12,0.00
2013-2-14,41,34,25,35,29,22,90,81,68,29.83,29.71,14,1,14,0.00
2013-2-15,37,31,27,28,22,15,84,70,58,30.07,29.83,12,0,12,0.01
2013-2-16,29,24,17,20,17,11,88,76,52,30.06,29.94,2,0,11,0.00
2013-2-17,22,17,8,15,8,3,84,70,53,30.24,29.96,8,0,13,0.00
2013-2-18,46,29,7,31,16,2,84,62,45,30.24,29.65,19,2,19,0.11
2013-2-19,47,31,18,38,25,8,91,77,53,29.94,29.49,21,3,21,0.16
2013-2-20,22,20,17,15,11,6,88,69,57,30.20,29.94,16,2,16,0.00
2013-2-21,23,21,18,17,13,10,81,71,62,30.35,30.18,11,0,11,0.00
2013-2-22,38,30,20,35,25,13,88,81,69,30.28,29.87,14,1,14,0.12
2013-2-23,36,33,30,30,25,22,85,74,61,29.92,29.85,10,1,10,0.00
2013-2-24,35,31,27,25,22,19,77,69,59,30.11,29.85,12,1,12,0.00
2013-2-25,41,30,20,29,23,17,92,74,55,30.18,30.02,7,0,7,0.00
2013-2-26,39,33,24,36,28,20,91,82,58,30.06,29.43,17,2,17,0.53
2013-2-27,44,38,33,39,36,31,93,89,77,29.58,29.42,13,1,13,0.24
2013-2-28,35,33,31,32,30,27,93,88,84,29.85,29.53,14,1,14,0.04
2013-3-1,30,28,27,27,24,21,88,82,75,30.01,29.85,14,1,14,0.00
2013-3-2,28,26,24,23,22,18,87,83,75,29.99,29.95,11,0,11,0.01
2013-3-3,25,24,23,21,19,16,87,82,72,29.98,29.95,8,0,8,0.00
2013-3-4,33,24,14,30,17,9,100,75,55,30.19,30.02,2,0,13,0.00
2013-3-5,36,29,17,26,23,14,100,78,58,32.11,29.65,32,0,32,0.01
2013-3-6,42,34,29,31,28,26,91,79,64,30.14,29.65,7,0,7,0.05
2013-3-7,37,33,28,32,30,25,92,87,77,30.33,30.12,7,0,7,0.03
2013-3-8,36,29,21,30,25,19,93,85,72,30.44,30.33,3,0,6,0.02
2013-3-9,52,36,22,33,27,20,94,72,42,30.40,30.02,12,0,12,0.00
2013-3-10,71,58,48,39,33,28,55,40,27,30.02,29.76,14,1,14,0.00
2013-3-11,63,52,41,49,43,31,92,73,32,29.77,29.46,21,2,21,0.77
2013-3-12,41,36,32,35,30,25,90,77,67,29.93,29.69,14,1,14,0.00
2013-3-13,32,31,28,26,22,15,86,70,52,30.13,29.85,20,2,20,0.01
2013-3-14,37,30,26,22,17,14,80,60,50,30.21,30.07,13,2,17,0.00
2013-3-15,44,36,28,33,29,22,92,76,62,30.07,29.81,10,1,10,0.11
2013-3-16,35,32,29,33,29,24,95,90,81,29.98,29.64,6,0,7,0.19
2013-3-17,33,30,27,27,22,18,87,72,59,30.20,29.98,7,0,7,0.04
2013-3-18,45,35,27,44,30,17,94,83,66,30.15,29.51,17,2,17,0.21
2013-3-19,40,31,27,38,22,17,92,67,55,29.92,29.63,22,3,22,0.00
2013-3-20,32,28,24,20,17,10,76,62,51,29.92,29.85,12,1,12,0.00
2013-3-21,30,24,18,25,18,10,88,76,56,29.88,29.84,12,1,12,0.02
2013-3-22,36,29,26,24,21,18,88,72,57,29.98,29.88,12,1,12,0.00
2013-3-23,38,29,20,28,22,17,91,74,56,30.04,29.96,7,0,7,0.01
2013-3-24,35,31,24,26,23,19,86,72,54,29.99,29.50,10,0,10,0.00
2013-3-25,34,33,31,32,31,29,95,92,89,29.79,29.41,7,0,10,0.22
2013-3-26,42,36,32,31,30,28,93,78,60,30.06,29.79,13,1,13,0.14
2013-3-27,45,38,33,31,28,24,92,69,45,30.13,30.04,17,2,17,0.02
2013-3-28,44,39,35,30,28,26,72,64,54,30.22,30.11,12,1,12,0.00
2013-3-29,48,41,32,31,25,17,79,55,34,30.23,30.14,10,1,10,0.00
2013-3-30,58,42,30,29,24,19,61,50,27,30.18,29.91,10,0,10,0.00
2013-3-31,55,49,42,45,36,22,85,63,42,29.91,29.59,13,1,13,0.07
2013-4-1,48,38,32,40,22,11,87,55,32,30.04,29.59,16,2,16,0.01
2013-4-2,40,33,27,24,15,8,81,49,32,30.17,30.04,13,1,13,0.00
2013-4-3,36,32,24,22,15,8,65,50,35,30.41,30.17,14,1,14,0.00
2013-4-4,57,38,23,21,15,8,67,42,14,30.36,29.91,8,0,8,0.00
2013-4-5,44,38,29,33,24,17,79,59,43,30.18,29.87,10,0,11,0.00
2013-4-6,56,38,23,20,16,7,79,45,21,30.24,29.84,13,0,13,0.00
2013-4-7,72,57,43,46,40,13,71,54,19,29.96,29.68,18,3,21,0.00
2013-4-8,72,57,38,55,43,31,81,62,45,29.99,29.69,12,1,12,0.01
2013-4-9,79,58,45,56,45,34,87,64,36,30.03,29.76,18,0,18,0.00
2013-4-10,62,47,40,58,42,38,96,85,63,29.92,29.74,14,0,16,0.56
2013-4-11,44,41,38,43,40,37,98,95,91,29.88,29.56,11,0,11,0.16
2013-4-12,47,42,41,47,38,32,98,84,66,29.78,29.40,16,2,16,0.33
2013-4-13,45,41,38,39,33,27,87,74,60,29.97,29.78,17,2,17,0.02
2013-4-14,54,42,30,38,33,26,90,71,52,30.08,29.89,6,0,6,0.00
2013-4-15,73,62,50,52,45,35,68,55,43,29.95,29.85,19,1,19,0.00
2013-4-16,68,57,49,59,50,46,91,79,67,30.12,29.84,12,1,12,0.12
2013-4-17,55,49,42,46,39,32,95,72,47,30.25,29.98,10,0,10,0.00
2013-4-18,84,68,46,63,54,39,93,64,34,30.00,29.56,18,2,18,0.00
2013-4-19,71,52,40,60,42,28,92,69,51,29.79,29.27,21,3,21,0.18
2013-4-20,43,38,33,32,27,22,84,63,49,30.38,29.78,14,2,14,0.01
2013-4-21,45,39,31,32,26,22,77,62,45,30.57,30.38,11,0,11,0.00
2013-4-22,66,49,32,39,31,24,78,53,28,30.43,30.13,12,0,12,0.00
2013-4-23,74,61,46,50,36,25,70,40,27,30.14,29.77,13,1,13,0.03
2013-4-24,60,46,37,53,42,35,94,88,70,30.12,29.66,12,1,12,0.72
2013-4-25,54,41,31,43,34,29,93,76,46,30.30,30.12,13,1,13,0.05
2013-4-26,56,44,29,39,30,26,94,63,35,30.43,30.30,7,0,7,0.00
2013-4-27,70,51,35,39,34,29,89,57,26,30.33,30.03,9,0,9,0.00
2013-4-28,58,53,44,55,48,38,92,81,58,30.03,29.78,14,1,14,0.19
2013-4-29,67,60,54,57,53,49,94,79,57,29.91,29.78,9,0,9,0.16
2013-4-30,76,64,50,58,52,48,96,68,42,30.02,29.91,12,0,12,0.00
2013-5-1,82,69,58,59,52,47,74,56,37,30.16,30.02,13,1,13,0.00
2013-5-2,80,69,59,51,41,31,48,36,26,30.22,30.06,12,1,12,0.00
2013-5-3,78,69,58,47,38,29,51,33,17,30.10,29.99,14,2,14,0.00
2013-5-4,74,65,56,43,37,27,51,36,20,30.08,29.97,14,2,14,0.00
2013-5-5,74,64,56,45,38,24,53,39,21,30.02,29.91,14,1,14,0.00
2013-5-6,74,64,53,50,41,24,59,44,24,29.97,29.88,12,1,12,0.00
2013-5-7,72,63,56,57,51,48,79,66,53,29.95,29.89,8,0,8,0.00
2013-5-8,75,63,52,56,52,47,90,69,45,29.91,29.86,7,0,7,0.03
2013-5-9,76,66,55,58,48,31,96,59,21,29.91,29.84,7,0,7,0.01
2013-5-10,75,65,50,63,56,38,96,76,36,29.85,29.67,12,0,12,0.71
2013-5-11,56,49,44,49,45,34,96,88,68,29.85,29.73,16,1,16,0.04
2013-5-12,50,44,38,37,32,24,85,63,40,30.03,29.83,16,2,16,0.03
2013-5-13,48,43,34,31,26,21,79,53,36,30.14,30.01,13,1,13,0.00
2013-5-14,68,54,37,45,35,26,71,49,33,30.10,29.71,17,1,17,0.00
2013-5-15,83,70,58,60,51,41,80,53,26,29.74,29.59,16,1,17,0.01
2013-5-16,78,68,52,52,45,32,85,49,20,29.89,29.68,9,0,9,0.00
2013-5-17,72,61,50,54,45,38,86,58,31,30.06,29.89,7,0,7,0.00
2013-5-18,80,64,53,55,49,43,74,58,32,30.06,29.94,7,0,7,0.00
2013-5-19,85,72,58,65,60,51,82,67,46,29.97,29.85,12,0,12,0.00
2013-5-20,86,76,66,71,66,61,88,71,56,29.88,29.76,11,0,11,0.00
2013-5-21,87,78,71,68,64,58,87,65,39,29.79,29.66,12,0,12,0.00
2013-5-22,87,76,66,65,62,59,91,63,41,29.72,29.59,11,0,11,0.14
2013-5-23,75,59,42,64,55,40,96,87,59,30.00,29.63,16,1,16,0.20
2013-5-24,48,43,37,40,35,32,91,74,58,30.29,30.00,16,1,16,0.02
2013-5-25,61,49,34,42,36,31,92,63,38,30.33,30.22,13,1,13,0.00
2013-5-26,66,52,36,43,36,28,95,60,27,30.28,30.17,11,0,11,0.01
2013-5-27,60,53,39,51,43,35,92,72,40,30.20,29.97,8,0,8,0.15
2013-5-28,84,69,54,69,60,51,96,77,52,29.97,29.79,11,0,11,0.26
2013-5-29,88,78,69,67,62,58,78,60,45,29.95,29.81,17,0,17,0.00
2013-5-30,91,78,64,69,62,58,85,61,37,30.03,29.92,11,0,11,0.00
2013-5-31,91,75,67,70,64,59,95,70,43,29.96,29.83,14,0,14,0.45
2013-6-1,85,73,64,70,66,62,97,81,56,29.85,29.64,8,0,8,1.29
2013-6-2,78,69,60,66,60,53,97,76,49,29.86,29.64,14,1,14,0.11
2013-6-3,63,57,48,53,45,39,80,66,45,30.03,29.85,10,0,10,0.00
2013-6-4,68,57,44,55,44,37,90,66,37,30.13,30.03,8,0,8,0.00
2013-6-5,74,61,48,56,48,42,89,64,43,30.09,29.87,10,0,10,0.00
2013-6-6,61,58,55,59,54,49,96,88,69,29.87,29.75,6,0,6,0.27
2013-6-7,58,56,55,56,54,53,97,93,85,29.83,29.77,5,0,6,0.02
2013-6-8,71,61,54,58,53,49,91,77,53,30.03,29.82,6,0,6,0.00
2013-6-9,83,69,53,62,56,49,88,65,43,30.05,29.88,11,1,11,0.01
2013-6-10,73,69,65,70,64,59,92,84,66,29.87,29.66,8,0,8,0.30
2013-6-11,80,71,65,65,63,61,92,77,55,29.81,29.68,12,1,12,0.00
2013-6-12,80,72,66,68,64,61,88,77,63,29.83,29.58,12,0,12,0.00
2013-6-13,72,66,60,66,60,54,96,83,59,29.80,29.40,17,1,17,0.55
2013-6-14,73,63,54,59,55,50,90,76,53,30.01,29.79,11,0,11,0.00
2013-6-15,83,66,49,61,54,47,96,70,36,30.04,29.88,8,0,8,0.01
2013-6-16,84,73,66,69,63,58,92,74,55,29.88,29.75,12,0,12,0.13
2013-6-17,85,73,62,71,62,58,95,71,42,29.85,29.78,6,0,6,0.00
2013-6-18,75,67,59,65,58,52,85,72,57,29.95,29.77,13,0,13,0.00
2013-6-19,74,64,52,58,52,46,93,67,43,30.10,29.95,6,0,6,0.00
2013-6-20,82,67,50,60,50,44,92,59,30,30.15,30.09,6,0,6,0.00
2013-6-21,90,74,56,64,57,49,80,56,35,30.15,30.02,7,0,7,0.00
2013-6-22,93,79,65,73,65,57,80,63,47,30.06,29.92,6,0,6,0.00
2013-6-23,94,82,69,70,66,59,88,61,33,30.01,29.90,10,0,10,0.00
2013-6-24,92,80,67,69,65,60,84,62,37,30.01,29.86,10,0,10,0.00
2013-6-25,92,77,67,75,68,63,96,75,48,29.91,29.74,24,0,24,1.38
2013-6-26,87,74,67,72,68,66,97,82,54,29.82,29.69,7,0,7,0.99
2013-6-27,82,72,68,72,68,65,100,87,59,29.69,29.55,7,0,7,0.47
2013-6-28,80,70,64,70,64,58,96,81,57,29.55,29.43,11,0,11,0.02
2013-6-29,76,68,63,68,63,60,94,86,69,29.61,29.44,6,0,6,0.76
2013-6-30,75,69,66,65,62,60,88,79,64,29.81,29.61,7,0,7,0.03
2013-7-1,73,68,63,66,64,61,94,87,78,29.92,29.77,10,0,10,0.64
2013-7-2,77,69,63,68,63,60,94,84,67,29.97,29.87,4,0,7,0.07
2013-7-3,87,74,63,73,67,61,97,80,52,30.02,29.95,8,0,8,0.01
2013-7-4,82,75,70,72,68,65,93,78,61,30.07,30.01,6,0,6,0.05
2013-7-5,82,74,70,70,68,65,94,81,60,30.05,29.99,8,0,8,0.23
2013-7-6,88,76,68,72,68,64,93,80,53,30.06,29.90,5,0,8,0.24
2013-7-7,81,74,68,69,66,63,94,79,54,29.99,29.89,8,0,8,0.01
2013-7-8,88,74,65,73,67,61,93,80,57,30.00,29.92,10,0,10,0.62
2013-7-9,87,76,69,76,71,67,97,87,65,29.95,29.83,10,0,10,0.54
2013-7-10,87,74,68,78,72,66,97,92,69,29.85,29.68,13,0,19,1.65
2013-7-11,77,69,63,67,61,57,92,77,52,29.96,29.81,2,0,12,0.01
2013-7-12,79,72,60,68,63,56,94,75,60,30.02,29.95,11,0,11,0.00
2013-7-13,69,68,67,63,61,59,87,77,71,30.03,30.02,6,0,6,0.00
2013-7-14,89,80,67,74,69,64,93,71,55,30.16,30.11,6,0,7,0.00
2013-7-15,91,81,72,74,71,68,90,71,52,30.22,30.15,6,0,6,0.00
2013-7-16,90,82,73,77,73,69,92,74,60,30.21,30.15,8,0,8,0.00
2013-7-17,93,83,74,75,72,69,92,70,47,30.19,30.06,8,0,8,0.00
2013-7-18,94,84,75,76,73,70,91,71,48,30.06,29.89,7,0,7,0.00
2013-7-19,94,84,75,76,72,68,86,70,50,29.90,29.70,13,0,13,0.00
2013-7-20,81,74,68,72,69,66,97,85,71,29.82,29.65,10,0,10,0.49
2013-7-21,84,75,67,72,67,61,96,78,62,29.88,29.81,7,0,7,0.00
2013-7-22,77,69,64,72,66,60,93,88,76,29.88,29.68,2,0,2,0.44
2013-7-23,84,73,62,73,66,60,97,82,55,29.72,29.56,12,0,13,0.14
2013-7-24,70,66,56,61,54,51,85,66,55,29.95,29.72,10,0,11,0.00
2013-7-25,77,66,55,57,52,47,90,64,39,30.02,29.95,11,0,11,0.00
2013-7-26,82,66,53,62,55,50,94,71,43,30.02,29.86,1,0,6,0.00
2013-7-27,74,67,65,66,62,57,92,83,73,29.87,29.69,7,0,7,0.19
2013-7-28,72,64,53,59,54,50,92,70,47,29.93,29.76,6,0,10,0.05
2013-7-29,71,63,54,60,55,51,92,76,54,30.11,29.93,8,0,8,0.00
2013-7-30,78,66,54,63,57,52,97,75,52,30.15,30.06,7,0,7,0.00
2013-7-31,82,72,60,65,61,56,89,71,52,30.07,29.82,6,0,8,0.00
2013-8-1,80,71,63,66,62,56,92,75,49,29.83,29.75,8,0,11,0.06
2013-8-2,76,67,58,65,60,56,93,78,55,29.89,29.78,7,0,7,0.48
2013-8-3,79,70,61,68,61,51,96,76,42,29.92,29.82,9,0,9,0.00
2013-8-4,73,65,58,60,56,49,93,72,56,30.06,29.91,13,0,13,0.16
2013-8-5,74,65,54,58,54,48,91,67,48,30.05,29.92,3,0,3,0.00
2013-8-6,81,70,60,63,58,54,86,67,45,29.93,29.84,10,0,10,0.00
2013-8-7,80,71,63,71,65,58,92,81,70,29.90,29.77,6,0,6,0.37
2013-8-8,79,73,70,72,69,64,93,86,76,29.88,29.81,6,0,6,0.02
2013-8-9,76,70,62,66,60,46,94,74,40,29.93,29.82,8,0,8,0.12
2013-8-10,78,69,60,63,58,55,92,70,54,30.03,29.93,2,0,5,0.00
2013-8-11,82,70,60,63,58,54,90,66,41,30.05,29.96,6,0,7,0.00
2013-8-12,82,71,63,67,63,58,90,76,55,29.98,29.73,6,0,6,0.00
2013-8-13,72,66,60,66,57,46,94,75,56,29.92,29.70,11,1,16,0.02
2013-8-14,70,62,55,56,51,46,84,67,55,30.09,29.91,12,1,12,0.00
2013-8-15,75,62,49,55,51,47,95,69,41,30.12,30.04,7,0,7,0.00
2013-8-16,78,64,50,58,53,48,95,70,40,30.11,30.05,7,0,7,0.00
2013-8-17,80,67,52,64,56,50,97,72,43,30.17,30.10,7,0,7,0.00
2013-8-18,79,67,54,64,58,52,94,75,50,30.14,30.04,5,0,5,0.00
2013-8-19,82,69,60,66,60,56,95,76,44,30.06,29.98,6,0,6,0.00
2013-8-20,85,72,60,65,60,56,92,70,43,30.08,30.00,7,0,7,0.00
2013-8-21,90,74,60,66,62,57,94,68,37,30.09,29.95,6,0,6,0.00
2013-8-22,84,74,66,72,67,63,92,79,57,29.98,29.89,7,0,7,0.12
2013-8-23,81,73,60,68,63,55,91,73,50,30.10,29.91,6,0,6,0.02
2013-8-24,81,68,54,61,55,50,97,68,36,30.23,30.10,10,0,10,0.00
2013-8-25,87,71,55,63,58,53,97,67,36,30.26,30.12,7,0,7,0.00
2013-8-26,88,76,65,67,62,58,78,63,46,30.12,29.90,5,0,8,0.00
2013-8-27,81,76,72,74,70,66,96,82,67,29.94,29.79,9,0,9,0.66
2013-8-28,76,74,73,72,71,70,92,90,87,29.81,29.71,6,0,6,0.06
2013-8-29,81,75,68,72,69,64,94,83,69,29.97,29.88,1,0,10,0.00
2013-8-30,88,76,64,71,66,62,97,75,50,29.92,29.69,1,0,7,0.00
2013-8-31,83,76,70,72,69,66,93,79,60,29.74,29.62,7,0,7,0.03
2013-9-1,83,76,70,72,69,66,92,82,65,29.73,29.65,4,0,5,0.01
2013-9-2,78,72,68,71,66,58,94,81,60,29.78,29.64,12,0,12,0.01
2013-9-3,68,63,55,59,54,51,88,71,61,29.96,29.78,7,0,10,0.00
2013-9-4,75,59,53,60,54,51,94,85,57,30.04,29.96,6,0,6,0.00
2013-9-5,70,65,57,64,53,40,85,65,46,30.17,29.96,6,0,11,0.00
2013-9-6,57,53,50,44,43,41,77,68,58,30.18,30.16,0,0,0,0.00
2013-9-7,82,74,48,67,61,45,88,65,45,30.18,29.82,6,0,6,0.00
2013-9-8,75,69,56,67,60,49,91,75,57,29.99,29.81,11,0,11,0.00
2013-9-9,82,68,51,69,60,47,93,77,62,29.99,29.87,6,0,6,0.00
2013-9-10,97,84,74,73,69,64,83,64,36,29.96,29.86,6,0,6,0.00
2013-9-11,95,82,73,73,69,64,84,67,38,30.00,29.85,6,0,6,0.00
2013-9-12,77,70,61,69,64,58,91,82,66,29.88,29.73,13,0,13,0.18
2013-9-13,61,58,55,59,50,40,91,74,58,30.01,29.80,10,1,14,0.05
2013-9-14,65,56,48,49,44,39,89,65,50,30.10,30.01,8,0,8,0.00
2013-9-15,71,58,46,57,50,44,95,75,47,30.10,29.98,6,0,6,0.05
2013-9-16,66,60,52,57,52,45,93,77,63,30.26,30.02,10,0,10,0.00
2013-9-17,70,56,42,52,45,37,92,69,35,30.34,30.17,10,0,10,0.00
2013-9-18,76,63,51,58,51,43,84,66,45,30.17,29.99,7,0,7,0.00
2013-9-19,80,69,60,66,63,56,93,81,61,30.01,29.89,8,0,8,0.00
2013-9-20,86,74,66,71,67,62,93,80,56,29.90,29.66,12,0,12,0.76
2013-9-21,69,64,58,67,60,50,97,90,70,29.74,29.57,13,0,13,0.71
2013-9-22,60,56,54,52,46,43,75,68,60,29.98,29.74,11,1,11,0.00
2013-9-23,62,54,44,47,44,40,89,70,55,30.10,29.98,6,0,6,0.00
2013-9-24,66,51,38,52,43,36,95,78,51,30.10,29.96,9,0,9,0.00
2013-9-25,72,56,42,57,49,40,96,78,55,29.93,29.84,5,0,6,0.00
2013-9-26,72,57,44,56,48,42,95,73,45,30.05,29.89,6,0,6,0.00
2013-9-27,72,58,46,57,51,44,95,78,51,30.15,30.05,7,0,7,0.00
2013-9-28,77,63,48,58,52,46,95,71,41,30.15,30.00,10,0,10,0.00
2013-9-29,75,64,56,61,56,52,90,75,58,30.00,29.89,10,0,10,0.03
2013-9-30,66,63,58,63,60,56,92,91,87,29.94,29.87,4,0,4,0.22
2013-10-1,78,65,55,66,58,53,96,81,54,29.98,29.88,5,0,5,0.00
2013-10-2,76,66,58,65,59,53,91,81,67,30.00,29.91,7,0,7,0.00
2013-10-3,80,69,58,68,62,54,91,79,63,29.99,29.89,7,0,7,0.01
2013-10-4,78,71,65,70,65,63,92,83,64,29.96,29.91,8,0,8,0.04
2013-10-5,77,69,65,70,65,62,93,88,68,29.97,29.85,6,0,6,0.70
2013-10-6,78,71,56,68,64,54,95,82,62,29.83,29.58,14,0,14,0.80
2013-10-7,60,53,44,54,47,42,95,79,56,30.06,29.64,13,0,13,0.54
2013-10-8,66,54,43,53,46,41,94,75,45,30.23,30.06,7,0,7,0.00
2013-10-9,69,54,41,52,44,38,95,72,36,30.26,30.14,7,0,7,0.00
2013-10-10,64,52,40,51,44,37,94,74,43,30.18,30.04,5,0,5,0.00
2013-10-11,68,55,42,57,49,40,96,82,52,30.08,30.00,3,0,6,0.00
2013-10-12,74,61,47,62,54,45,94,80,55,30.05,29.99,7,0,7,0.00
2013-10-13,67,62,50,62,56,47,91,81,65,30.23,30.02,9,0,9,0.00
2013-10-14,65,56,46,53,47,41,94,73,55,30.29,30.19,11,0,11,0.00
2013-10-15,64,54,41,59,51,38,97,87,79,30.19,29.84,10,0,10,0.10
2013-10-16,68,60,46,64,56,42,96,88,70,29.85,29.72,11,0,11,0.54
2013-10-17,60,49,41,50,45,39,95,87,63,29.85,29.71,10,0,10,0.12
2013-10-18,64,52,41,46,44,39,93,74,51,29.90,29.80,6,0,10,0.00
2013-10-19,52,45,40,44,42,38,94,88,73,29.84,29.69,3,0,8,0.32
2013-10-20,60,47,37,43,39,35,95,77,46,29.90,29.84,11,0,11,0.00
2013-10-21,65,54,46,50,43,39,92,69,45,29.89,29.74,9,0,9,0.12
2013-10-22,50,43,36,47,33,29,92,69,49,29.91,29.78,8,0,8,0.05
2013-10-23,45,40,36,40,34,31,93,79,59,29.87,29.73,13,0,13,0.11
2013-10-24,47,38,34,36,32,30,92,81,57,30.09,29.86,12,0,12,0.41
2013-10-25,48,39,33,38,33,28,95,81,48,30.29,30.09,8,0,8,0.14
2013-10-26,47,41,34,39,31,26,92,68,52,30.15,29.79,11,0,11,0.02
2013-10-27,51,40,32,40,34,30,95,80,53,30.04,29.92,6,0,6,0.04
2013-10-28,54,42,31,43,36,28,94,81,61,30.29,30.02,6,0,6,0.00
2013-10-29,55,42,31,42,36,29,95,79,49,30.35,30.17,6,0,6,0.00
2013-10-30,64,47,36,53,41,33,93,82,55,30.17,29.93,10,0,10,0.00
2013-10-31,66,61,59,58,57,53,93,88,73,29.93,29.18,12,1,12,0.61
2013-11-1,60,56,45,58,52,41,93,88,77,29.63,29.13,8,1,21,0.31
2013-11-2,49,45,42,45,42,38,92,88,82,29.97,29.59,8,0,8,0.32
2013-11-3,47,41,33,38,34,25,84,74,61,30.42,29.97,9,0,9,0.02
2013-11-4,48,39,31,29,24,22,73,56,35,30.47,30.31,12,1,12,0.00
2013-11-5,60,51,40,45,38,28,73,61,51,30.35,30.18,5,0,7,0.00
2013-11-6,65,56,47,56,45,34,93,68,51,30.23,29.82,11,1,14,0.10
2013-11-7,57,43,40,45,40,34,94,87,78,30.06,29.82,14,1,14,0.01
2013-11-9,57,55,52,40,39,38,63,56,49,29.85,29.80,13,2,13,0.40
2013-11-10,52,44,34,39,32,27,78,64,53,30.23,29.85,11,1,11,0.02
2013-11-11,48,38,30,39,32,26,93,77,50,30.22,29.97,11,0,11,0.41
2013-11-12,35,32,29,28,23,16,93,70,51,30.45,30.19,13,1,13,0.01
2013-11-13,38,32,26,23,20,16,74,61,48,30.50,30.22,13,1,13,0.02
2013-11-14,52,38,28,24,20,18,70,50,29,30.22,30.02,11,0,11,0.12
2013-11-15,52,44,36,30,25,20,66,46,33,30.06,30.00,7,0,9,0.02
2013-11-16,61,49,38,50,42,29,88,75,59,30.11,29.81,11,1,13,0.00
2013-11-17,64,60,51,56,53,40,91,78,63,29.81,29.32,25,2,25,0.54
2013-11-18,51,43,36,40,33,24,77,67,59,30.06,29.49,16,3,21,0.00
2013-11-19,40,34,24,25,23,20,85,64,54,30.38,30.06,12,0,12,0.00
2013-11-20,47,35,21,27,18,13,92,56,25,30.42,30.24,18,1,18,0.00
2013-11-21,45,42,40,41,24,15,88,51,35,30.30,30.14,12,1,12,0.10
2013-11-22,48,44,35,47,41,26,96,90,68,30.28,30.07,18,1,18,0.22
2013-11-23,36,30,21,27,18,3,84,63,40,30.41,30.19,20,2,20,0.00
2013-11-24,24,22,20,13,8,3,71,55,45,30.54,30.40,19,2,19,0.00
2013-11-25,35,27,18,21,14,11,77,60,43,30.45,30.11,14,1,14,0.00
2013-11-26,36,33,31,30,26,16,91,77,45,30.12,29.80,12,0,12,0.00
2013-11-27,34,29,25,30,19,12,85,68,55,30.12,29.76,20,2,20,0.00
2013-11-28,30,26,20,20,16,12,83,68,57,30.39,30.12,8,0,10,0.00
2013-11-29,35,28,23,24,20,16,82,72,58,30.61,30.39,7,0,7,0.02
2013-11-30,42,33,27,26,22,18,78,66,53,30.56,30.10,12,0,12,0.00
2013-12-1,44,35,31,32,28,25,86,76,60,30.10,29.91,1,0,3,0.02
2013-12-2,40,36,30,34,31,26,88,81,71,29.91,29.82,7,0,7,0.00
2013-12-3,49,40,29,40,33,25,90,77,64,29.86,29.78,6,0,6,0.00
2013-12-4,60,52,41,49,44,36,88,75,66,29.86,29.65,13,1,13,0.00
2013-12-5,62,50,33,54,42,28,88,75,64,30.07,29.63,13,1,13,0.01
2013-12-6,34,31,27,30,25,21,91,80,65,30.31,30.05,8,0,10,0.00
2013-12-7,27,24,20,24,15,12,87,69,59,30.57,30.30,7,1,11,0.00
2013-12-8,29,25,17,26,16,11,86,70,56,30.56,29.97,12,0,12,0.00
2013-12-9,34,31,25,31,25,15,92,79,67,30.10,29.87,16,2,16,0.00
2013-12-10,27,23,20,15,11,5,70,61,39,30.22,29.95,21,2,21,0.00
2013-12-11,26,21,17,20,14,6,88,74,62,30.40,30.21,13,1,13,0.00
2013-12-12,18,15,7,7,3,-1,76,58,42,30.44,30.21,13,1,14,0.00
2013-12-13,31,24,17,19,13,4,76,62,54,30.24,30.16,8,0,8,0.00
2013-12-14,33,29,25,31,25,18,93,87,69,30.20,29.62,6,0,6,0.00
2013-12-15,33,22,13,31,18,6,94,83,72,30.02,29.64,12,0,12,0.00
2013-12-16,22,17,10,19,10,5,86,73,59,30.17,29.96,11,0,11,0.00
2013-12-17,29,25,21,24,20,17,90,82,71,30.01,29.87,11,1,11,0.00
2013-12-18,29,26,23,22,19,15,85,75,64,30.12,29.92,8,1,12,0.00
2013-12-19,46,38,28,34,28,17,81,67,56,29.97,29.87,12,1,12,0.63
2013-12-20,54,46,40,52,42,34,95,88,71,29.87,29.70,7,0,7,0.46
2013-12-21,56,44,36,54,43,35,98,94,91,29.77,29.41,11,0,11,1.97
2013-12-22,58,47,36,56,44,35,99,90,74,29.92,29.39,20,2,20,0.73
2013-12-23,39,33,27,37,27,17,93,78,62,30.27,29.92,11,1,11,0.02
2013-12-24,27,19,14,20,12,8,85,75,61,30.52,30.24,13,1,13,0.00
2013-12-25,28,21,9,22,13,4,86,71,57,30.49,30.12,14,0,14,0.00
2013-12-26,32,28,22,27,21,15,88,75,60,30.30,30.04,7,1,18,0.00
2013-12-27,41,35,26,30,26,19,78,69,63,30.30,30.11,7,0,10,0.04
2013-12-28,52,44,37,34,31,28,72,60,44,30.11,29.91,14,1,14,0.02
2013-12-29,44,39,26,38,31,23,91,73,55,29.91,29.64,11,1,11,0.04
2013-12-30,27,22,18,24,16,10,90,79,66,30.23,29.91,11,0,11,0.00
2013-12-31,22,19,17,18,13,8,85,75,60,30.31,30.03,16,1,16,0.00
2014-1-1,26,22,19,20,17,15,87,82,75,30.32,30.10,5,0,5,0.00
2014-1-2,23,19,13,19,15,4,89,85,68,30.11,29.85,7,1,13,0.00